createdAt,value
2018-05-15T00:01:45.193Z,13.00
2018-05-15T00:04:13.399Z,12.90
2018-05-15T00:06:42.407Z,12.90
2018-05-15T00:09:10.643Z,12.90
2018-05-15T00:11:38.888Z,12.90
2018-05-15T00:14:07.116Z,12.90
2018-05-15T00:16:36.113Z,12.90
2018-05-15T00:19:05.112Z,12.90
2018-05-15T00:21:33.353Z,12.90
2018-05-15T00:24:01.591Z,12.90
2018-05-15T00:26:29.823Z,12.90
2018-05-15T00:28:58.831Z,12.90
2018-05-15T00:31:27.056Z,12.90
2018-05-15T00:33:55.315Z,13.00
2018-05-15T00:36:23.546Z,12.90
2018-05-15T00:38:51.802Z,12.90
2018-05-15T00:41:20.032Z,12.90
2018-05-15T00:43:48.276Z,12.90
2018-05-15T00:46:16.498Z,12.90
2018-05-15T00:48:44.751Z,12.80
2018-05-15T00:51:12.984Z,12.80
2018-05-15T00:53:41.994Z,12.50
2018-05-15T00:56:10.222Z,12.50
2018-05-15T00:58:38.470Z,12.40
2018-05-15T01:01:06.707Z,12.40
2018-05-15T01:03:35.723Z,12.30
2018-05-15T01:06:03.952Z,12.20
2018-05-15T01:08:33.348Z,12.20
2018-05-15T01:11:01.611Z,12.20
2018-05-15T01:13:29.819Z,12.20
2018-05-15T01:15:58.062Z,12.10
2018-05-15T01:18:26.296Z,12.10
2018-05-15T01:20:54.822Z,12.10
2018-05-15T01:23:23.065Z,12.10
2018-05-15T01:25:51.299Z,12.10
2018-05-15T01:28:19.851Z,12.00
2018-05-15T01:30:48.090Z,12.00
2018-05-15T01:33:17.527Z,11.80
2018-05-15T01:35:45.760Z,11.80
2018-05-15T01:38:14.011Z,11.70
2018-05-15T01:40:42.239Z,11.60
2018-05-15T01:43:10.487Z,11.60
2018-05-15T01:45:38.715Z,11.70
2018-05-15T01:48:06.956Z,11.60
2018-05-15T01:50:35.559Z,11.60
2018-05-15T01:53:03.799Z,11.80
2018-05-15T01:55:32.027Z,11.80
2018-05-15T01:58:00.284Z,11.80
2018-05-15T02:00:29.270Z,11.70
2018-05-15T02:02:58.290Z,11.60
2018-05-15T02:05:26.577Z,11.60
2018-05-15T02:07:54.778Z,11.60
2018-05-15T02:10:23.010Z,11.50
2018-05-15T02:12:51.242Z,11.50
2018-05-15T02:15:19.486Z,11.50
2018-05-15T02:17:47.719Z,11.50
2018-05-15T02:20:15.958Z,11.50
2018-05-15T02:22:44.188Z,11.50
2018-05-15T02:25:12.439Z,11.50
2018-05-15T02:27:40.669Z,11.30
2018-05-15T02:30:08.904Z,11.30
2018-05-15T02:32:37.151Z,11.20
2018-05-15T02:35:06.164Z,11.30
2018-05-15T02:37:34.403Z,11.20
2018-05-15T02:40:02.639Z,11.10
2018-05-15T02:42:30.871Z,11.10
2018-05-15T02:44:59.882Z,11.00
2018-05-15T02:47:28.109Z,11.00
2018-05-15T02:49:56.351Z,10.90
2018-05-15T02:52:24.581Z,10.90
2018-05-15T02:54:53.604Z,10.80
2018-05-15T02:57:21.839Z,10.80
2018-05-15T02:59:50.855Z,10.90
2018-05-15T03:02:19.090Z,10.80
2018-05-15T03:04:47.335Z,10.80
2018-05-15T03:07:15.563Z,10.70
2018-05-15T03:09:44.571Z,10.50
2018-05-15T03:12:12.820Z,10.50
2018-05-15T03:14:41.829Z,10.40
2018-05-15T03:17:10.056Z,10.40
2018-05-15T03:19:38.295Z,10.50
2018-05-15T03:22:06.611Z,10.60
2018-05-15T03:24:34.855Z,10.60
2018-05-15T03:27:03.090Z,10.60
2018-05-15T03:29:31.340Z,10.40
2018-05-15T03:31:59.575Z,10.50
2018-05-15T03:34:27.824Z,10.60
2018-05-15T03:36:56.054Z,10.60
2018-05-15T03:39:25.086Z,10.60
2018-05-15T03:41:53.320Z,10.60
2018-05-15T03:44:21.575Z,10.60
2018-05-15T03:46:50.575Z,10.90
2018-05-15T03:49:18.824Z,10.90
2018-05-15T03:51:47.064Z,10.80
2018-05-15T03:54:16.075Z,10.80
2018-05-15T03:56:44.311Z,10.80
2018-05-15T03:59:13.328Z,10.80
2018-05-15T04:01:53.306Z,10.80
2018-05-15T04:04:33.502Z,10.80
2018-05-15T04:07:14.467Z,10.70
2018-05-15T04:09:42.714Z,10.70
2018-05-15T04:12:10.952Z,10.70
2018-05-15T04:14:39.198Z,10.70
2018-05-15T04:17:08.198Z,10.90
2018-05-15T04:19:37.230Z,10.90
2018-05-15T04:22:05.473Z,10.90
2018-05-15T04:24:34.466Z,11.00
2018-05-15T04:27:03.478Z,11.10
2018-05-15T04:29:31.708Z,11.00
2018-05-15T04:31:59.948Z,11.10
2018-05-15T04:34:28.179Z,11.20
2018-05-15T04:36:57.187Z,11.20
2018-05-15T04:39:25.423Z,11.20
2018-05-15T04:41:53.672Z,11.30
2018-05-15T04:44:21.903Z,11.40
2018-05-15T04:46:50.148Z,11.40
2018-05-15T04:49:19.166Z,11.50
2018-05-15T04:51:48.187Z,11.60
2018-05-15T04:54:16.420Z,11.50
2018-05-15T04:56:45.436Z,11.80
2018-05-15T04:59:13.671Z,11.70
2018-05-15T05:01:42.695Z,11.90
2018-05-15T05:04:10.935Z,11.90
2018-05-15T05:06:39.183Z,12.00
2018-05-15T05:09:07.416Z,12.10
2018-05-15T05:11:35.661Z,12.20
2018-05-15T05:14:04.234Z,12.20
2018-05-15T05:16:32.454Z,12.30
2018-05-15T05:19:00.694Z,12.40
2018-05-15T05:21:29.698Z,12.60
2018-05-15T05:23:58.699Z,12.70
2018-05-15T05:26:26.946Z,12.60
2018-05-15T05:28:55.171Z,12.80
2018-05-15T05:31:23.438Z,12.90
2018-05-15T05:33:51.659Z,12.90
2018-05-15T05:36:19.906Z,13.00
2018-05-15T05:38:48.135Z,13.20
2018-05-15T05:41:16.388Z,13.20
2018-05-15T05:43:45.395Z,13.40
2018-05-15T05:46:14.402Z,13.50
2018-05-15T05:48:42.628Z,13.50
2018-05-15T05:51:10.883Z,13.70
2018-05-15T05:53:39.111Z,13.80
2018-05-15T05:56:08.120Z,14.00
2018-05-15T05:58:36.355Z,14.00
2018-05-15T06:01:04.603Z,14.10
2018-05-15T06:03:32.827Z,14.20
2018-05-15T06:06:01.083Z,14.40
2018-05-15T06:08:30.079Z,14.60
2018-05-15T06:10:59.088Z,14.70
2018-05-15T06:13:27.547Z,14.70
2018-05-15T06:15:55.791Z,14.90
2018-05-15T06:18:24.035Z,15.10
2018-05-15T06:20:52.325Z,15.30
2018-05-15T06:23:21.279Z,15.60
2018-05-15T06:25:49.508Z,15.60
2018-05-15T06:28:17.763Z,15.90
2018-05-15T06:30:45.990Z,16.10
2018-05-15T06:33:15.004Z,16.40
2018-05-15T06:35:43.228Z,16.40
2018-05-15T06:38:11.475Z,16.60
2018-05-15T06:40:39.718Z,16.70
2018-05-15T06:43:07.991Z,16.90
2018-05-15T06:45:36.183Z,17.30
2018-05-15T06:48:04.420Z,17.50
2018-05-15T06:50:33.422Z,17.70
2018-05-15T06:53:01.670Z,17.70
2018-05-15T06:55:29.903Z,17.70
2018-05-15T06:57:58.148Z,18.00
2018-05-15T07:00:27.139Z,18.50
2018-05-15T07:02:55.387Z,18.50
2018-05-15T07:05:24.383Z,18.90
2018-05-15T07:07:53.395Z,18.90
2018-05-15T07:10:21.626Z,18.90
2018-05-15T07:12:49.863Z,19.00
2018-05-15T07:15:18.105Z,18.90
2018-05-15T07:17:47.124Z,19.20
2018-05-15T07:20:15.359Z,19.20
2018-05-15T07:22:43.611Z,19.40
2018-05-15T07:25:11.842Z,19.50
2018-05-15T07:27:40.093Z,19.30
2018-05-15T07:30:09.095Z,19.50
2018-05-15T07:32:37.339Z,19.40
2018-05-15T07:35:05.570Z,19.70
2018-05-15T07:37:34.108Z,19.70
2018-05-15T07:40:02.338Z,19.80
2018-05-15T07:42:30.587Z,20.10
2018-05-15T07:44:58.828Z,20.30
2018-05-15T07:47:27.834Z,20.60
2018-05-15T07:49:56.080Z,20.60
2018-05-15T07:52:24.319Z,20.70
2018-05-15T07:54:52.551Z,20.70
2018-05-15T07:57:21.563Z,21.20
2018-05-15T07:59:49.795Z,21.20
2018-05-15T08:02:18.042Z,21.30
2018-05-15T08:04:46.271Z,21.40
2018-05-15T08:07:14.520Z,21.50
2018-05-15T08:09:42.751Z,21.50
2018-05-15T08:12:11.016Z,21.60
2018-05-15T08:14:39.243Z,21.60
2018-05-15T08:17:08.239Z,21.90
2018-05-15T08:19:37.252Z,21.70
2018-05-15T08:22:05.489Z,21.70
2018-05-15T08:24:33.731Z,21.90
2018-05-15T08:27:01.971Z,22.20
2018-05-15T08:29:30.978Z,22.40
2018-05-15T08:31:59.206Z,22.40
2018-05-15T08:34:27.446Z,22.50
2018-05-15T08:36:55.676Z,22.40
2018-05-15T08:39:24.683Z,22.60
2018-05-15T08:41:52.924Z,22.50
2018-05-15T08:44:21.167Z,22.50
2018-05-15T08:46:49.400Z,22.50
2018-05-15T08:49:17.642Z,22.10
2018-05-15T08:51:45.883Z,22.30
2018-05-15T08:54:14.131Z,22.50
2018-05-15T08:56:42.375Z,22.60
2018-05-15T08:59:11.387Z,22.80
2018-05-15T09:01:39.625Z,22.70
2018-05-15T09:04:07.868Z,22.60
2018-05-15T09:06:36.100Z,22.40
2018-05-15T09:09:06.046Z,22.70
2018-05-15T09:11:34.278Z,22.70
2018-05-15T09:14:03.280Z,23.20
2018-05-15T09:16:32.278Z,23.00
2018-05-15T09:19:00.532Z,23.00
2018-05-15T09:21:29.526Z,23.60
2018-05-15T09:23:58.539Z,24.20
2018-05-15T09:26:26.775Z,24.10
2018-05-15T09:28:55.023Z,24.40
2018-05-15T09:31:23.251Z,24.30
2018-05-15T09:33:52.260Z,24.40
2018-05-15T09:36:20.504Z,24.40
2018-05-15T09:38:49.505Z,23.80
2018-05-15T09:41:17.735Z,23.80
2018-05-15T09:44:00.864Z,23.90
2018-05-15T09:46:29.090Z,24.30
2018-05-15T09:48:57.330Z,24.30
2018-05-15T09:51:25.554Z,24.20
2018-05-15T09:53:53.798Z,24.50
2018-05-15T09:56:22.028Z,24.50
2018-05-15T09:58:50.272Z,24.60
2018-05-15T10:01:18.505Z,24.60
2018-05-15T10:03:47.519Z,24.60
2018-05-15T10:06:15.745Z,24.60
2018-05-15T10:08:44.011Z,25.20
2018-05-15T10:11:12.243Z,25.60
2018-05-15T10:13:40.479Z,25.40
2018-05-15T10:16:08.715Z,25.40
2018-05-15T10:18:36.950Z,25.40
2018-05-15T10:21:05.960Z,25.70
2018-05-15T10:23:34.612Z,25.70
2018-05-15T10:26:02.842Z,25.80
2018-05-15T10:28:31.077Z,26.10
2018-05-15T10:31:00.090Z,25.80
2018-05-15T10:33:28.725Z,25.80
2018-05-15T10:35:56.943Z,25.60
2018-05-15T10:38:25.185Z,25.70
2018-05-15T10:40:53.427Z,25.80
2018-05-15T10:43:21.683Z,26.20
2018-05-15T10:45:49.925Z,26.00
2018-05-15T10:48:18.474Z,25.90
2018-05-15T10:50:46.715Z,25.70
2018-05-15T10:53:14.934Z,25.70
2018-05-15T10:55:43.947Z,25.70
2018-05-15T10:58:12.182Z,25.70
2018-05-15T11:00:40.429Z,26.00
2018-05-15T11:03:08.667Z,26.10
2018-05-15T11:05:36.927Z,25.80
2018-05-15T11:08:05.934Z,25.80
2018-05-15T11:10:34.180Z,25.80
2018-05-15T11:13:02.406Z,25.80
2018-05-15T11:15:31.094Z,25.80
2018-05-15T11:17:59.974Z,25.90
2018-05-15T11:20:40.067Z,26.00
2018-05-15T11:23:20.268Z,26.30
2018-05-15T11:25:49.284Z,26.40
2018-05-15T11:28:17.900Z,26.40
2018-05-15T11:30:46.888Z,25.80
2018-05-15T11:33:15.119Z,25.80
2018-05-15T11:35:43.421Z,25.80
2018-05-15T11:38:12.358Z,25.70
2018-05-15T11:40:41.116Z,25.70
2018-05-15T11:43:09.319Z,25.80
2018-05-15T11:45:37.572Z,26.10
2018-05-15T11:48:07.067Z,26.70
2018-05-15T11:50:36.466Z,27.00
2018-05-15T11:53:04.847Z,26.90
2018-05-15T11:55:35.294Z,27.10
2018-05-15T11:58:00.775Z,26.90
2018-05-15T12:00:29.699Z,26.10
2018-05-15T12:02:57.946Z,26.10
2018-05-15T12:05:26.187Z,25.50
2018-05-15T12:07:54.429Z,24.90
2018-05-15T12:10:22.671Z,24.60
2018-05-15T12:12:50.911Z,24.20
2018-05-15T12:15:19.170Z,24.20
2018-05-15T12:17:47.403Z,24.10
2018-05-15T12:20:16.396Z,24.10
2018-05-15T12:22:45.399Z,24.10
2018-05-15T12:25:13.637Z,24.10
2018-05-15T12:27:43.322Z,24.10
2018-05-15T12:30:10.099Z,24.20
2018-05-15T12:32:39.118Z,24.20
2018-05-15T12:35:07.349Z,24.10
2018-05-15T12:37:35.595Z,24.10
2018-05-15T12:40:03.831Z,24.10
2018-05-15T12:42:32.875Z,23.90
2018-05-15T12:45:01.111Z,23.90
2018-05-15T12:47:29.363Z,23.80
2018-05-15T12:49:58.362Z,23.60
2018-05-15T12:52:27.367Z,23.60
2018-05-15T12:54:55.631Z,23.50
2018-05-15T12:57:23.899Z,23.60
2018-05-15T12:59:52.894Z,23.60
2018-05-15T13:02:21.141Z,23.50
2018-05-15T13:04:49.367Z,23.80
2018-05-15T13:07:17.616Z,24.40
2018-05-15T13:09:45.856Z,25.20
2018-05-15T13:12:14.098Z,25.70
2018-05-15T13:14:42.326Z,26.00
2018-05-15T13:17:11.342Z,26.40
2018-05-15T13:19:39.574Z,26.40
2018-05-15T13:22:07.815Z,26.10
2018-05-15T13:24:36.098Z,25.70
2018-05-15T13:27:05.056Z,25.30
2018-05-15T13:29:33.295Z,25.30
2018-05-15T13:32:01.539Z,25.40
2018-05-15T13:34:29.764Z,25.30
2018-05-15T13:36:58.435Z,25.20
2018-05-15T13:39:26.651Z,25.20
2018-05-15T13:41:54.896Z,25.40
2018-05-15T13:44:23.127Z,25.10
2018-05-15T13:46:51.367Z,25.00
2018-05-15T13:49:19.596Z,24.60
2018-05-15T13:51:48.607Z,24.30
2018-05-15T13:54:16.831Z,24.30
2018-05-15T13:56:45.078Z,24.40
2018-05-15T13:59:13.315Z,24.30
2018-05-15T14:01:42.330Z,24.10
2018-05-15T14:04:10.547Z,24.10
2018-05-15T14:06:38.798Z,23.90
2018-05-15T14:09:07.015Z,23.70
2018-05-15T14:11:35.255Z,24.10
2018-05-15T14:14:03.491Z,24.50
2018-05-15T14:16:31.732Z,24.90
2018-05-15T14:19:00.000Z,25.00
2018-05-15T14:21:28.235Z,25.00
2018-05-15T14:23:56.506Z,25.20
2018-05-15T14:26:24.748Z,25.40
2018-05-15T14:28:53.755Z,25.40
2018-05-15T14:31:21.988Z,25.50
2018-05-15T14:33:50.230Z,25.70
2018-05-15T14:36:18.461Z,26.00
2018-05-15T14:38:47.477Z,25.70
2018-05-15T14:41:15.713Z,25.60
2018-05-15T14:43:43.959Z,25.50
2018-05-15T14:46:12.196Z,25.70
2018-05-15T14:48:40.980Z,25.90
2018-05-15T14:51:27.048Z,25.70
2018-05-15T14:53:56.051Z,24.80
2018-05-15T14:56:24.283Z,24.80
2018-05-15T14:58:52.583Z,24.50
2018-05-15T15:01:20.812Z,24.20
2018-05-15T15:03:49.051Z,24.00
2018-05-15T15:06:17.280Z,24.20
2018-05-15T15:08:45.527Z,24.20
2018-05-15T15:11:13.751Z,24.20
2018-05-15T15:13:42.774Z,24.20
2018-05-15T15:16:10.996Z,24.10
2018-05-15T15:18:39.247Z,24.20
2018-05-15T15:21:07.865Z,24.30
2018-05-15T15:23:36.161Z,24.50
2018-05-15T15:26:04.323Z,24.60
2018-05-15T15:28:33.330Z,24.60
2018-05-15T15:31:01.557Z,24.60
2018-05-15T15:33:29.799Z,24.40
2018-05-15T15:35:58.027Z,24.20
2018-05-15T15:38:26.275Z,24.10
2018-05-15T15:40:54.513Z,24.10
2018-05-15T15:43:22.754Z,24.20
2018-05-15T15:45:51.751Z,24.50
2018-05-15T15:48:20.768Z,24.40
2018-05-15T15:50:48.989Z,24.40
2018-05-15T15:53:17.227Z,24.40
2018-05-15T15:55:45.477Z,24.20
2018-05-15T15:58:14.480Z,24.20
2018-05-15T16:00:42.707Z,24.20
2018-05-15T16:03:10.951Z,24.20
2018-05-15T16:05:39.191Z,24.20
2018-05-15T16:08:07.420Z,24.10
2018-05-15T16:10:35.664Z,24.00
2018-05-15T16:13:04.294Z,24.00
2018-05-15T16:15:32.639Z,23.90
2018-05-15T16:18:00.875Z,23.80
2018-05-15T16:20:29.123Z,23.80
2018-05-15T16:22:57.342Z,23.90
2018-05-15T16:25:25.591Z,23.70
2018-05-15T16:27:53.822Z,23.60
2018-05-15T16:30:22.092Z,23.50
2018-05-15T16:32:50.360Z,23.40
2018-05-15T16:35:18.631Z,23.30
2018-05-15T16:37:47.215Z,23.20
2018-05-15T16:40:15.391Z,23.20
2018-05-15T16:42:43.887Z,23.00
2018-05-15T16:45:12.927Z,22.90
2018-05-15T16:47:41.314Z,22.90
2018-05-15T16:50:09.633Z,22.80
2018-05-15T16:52:38.547Z,22.70
2018-05-15T16:55:07.592Z,22.80
2018-05-15T16:57:35.860Z,22.80
2018-05-15T17:00:04.104Z,22.80
2018-05-15T17:02:32.372Z,22.90
2018-05-15T17:05:01.494Z,22.90
2018-05-15T17:07:29.758Z,22.90
2018-05-15T17:09:58.008Z,22.90
2018-05-15T17:12:26.584Z,22.80
2018-05-15T17:14:55.596Z,22.90
2018-05-15T17:17:24.449Z,22.80
2018-05-15T17:19:52.747Z,22.80
2018-05-15T17:22:21.749Z,22.80
2018-05-15T17:24:50.755Z,22.80
2018-05-15T17:27:18.986Z,22.80
2018-05-15T17:29:47.232Z,22.70
2018-05-15T17:32:15.464Z,22.70
2018-05-15T17:34:43.729Z,22.80
2018-05-15T17:37:12.712Z,22.80
2018-05-15T17:39:41.733Z,22.80
2018-05-15T17:42:09.967Z,22.70
2018-05-15T17:44:38.217Z,22.70
2018-05-15T17:47:07.307Z,22.50
2018-05-15T17:49:35.558Z,22.50
2018-05-15T17:52:03.804Z,22.30
2018-05-15T17:54:33.176Z,22.10
2018-05-15T17:57:01.381Z,22.00
2018-05-15T17:59:29.708Z,21.90
2018-05-15T18:01:58.638Z,21.90
2018-05-15T18:04:27.631Z,21.90
2018-05-15T18:06:56.643Z,21.90
2018-05-15T18:09:24.879Z,21.90
2018-05-15T18:11:53.175Z,21.80
2018-05-15T18:14:21.740Z,21.70
2018-05-15T18:16:49.979Z,21.70
2018-05-15T18:19:18.208Z,21.60
2018-05-15T18:21:46.538Z,21.60
2018-05-15T18:24:14.677Z,21.50
2018-05-15T18:26:42.915Z,21.40
2018-05-15T18:29:11.914Z,21.30
2018-05-15T18:31:41.745Z,21.30
2018-05-15T18:34:09.979Z,21.30
2018-05-15T18:36:38.992Z,21.20
2018-05-15T18:39:08.005Z,21.20
2018-05-15T18:41:36.235Z,21.10
2018-05-15T18:44:04.460Z,21.10
2018-05-15T18:46:32.700Z,21.10
2018-05-15T18:49:01.703Z,20.90
2018-05-15T18:51:29.953Z,20.90
2018-05-15T18:53:58.184Z,20.80
2018-05-15T18:56:26.435Z,20.70
2018-05-15T18:58:54.991Z,20.30
2018-05-15T19:01:23.995Z,19.80
2018-05-15T19:03:52.219Z,19.70
2018-05-15T19:06:20.472Z,19.60
2018-05-15T19:08:48.698Z,19.50
2018-05-15T19:11:19.607Z,19.10
2018-05-15T19:13:47.851Z,19.10
2018-05-15T19:16:17.315Z,19.10
2018-05-15T19:18:46.315Z,18.90
2018-05-15T19:21:15.331Z,18.80
2018-05-15T19:23:43.560Z,18.80
2018-05-15T19:26:11.801Z,18.70
2018-05-15T19:28:40.027Z,18.70
2018-05-15T19:31:14.886Z,18.40
2018-05-15T19:33:43.119Z,18.40
2018-05-15T19:36:12.138Z,18.20
2018-05-15T19:38:40.375Z,18.20
2018-05-15T19:41:08.610Z,18.30
2018-05-15T19:43:36.847Z,18.30
2018-05-15T19:46:05.106Z,18.20
2018-05-15T19:48:34.099Z,18.20
2018-05-15T19:51:03.104Z,18.30
2018-05-15T19:53:31.342Z,18.20
2018-05-15T19:55:59.594Z,18.20
2018-05-15T19:58:27.819Z,18.20
2018-05-15T20:00:56.836Z,18.00
2018-05-15T20:03:25.062Z,18.10
2018-05-15T20:05:53.312Z,18.10
2018-05-15T20:08:21.536Z,18.00
2018-05-15T20:10:50.193Z,18.00
2018-05-15T20:13:18.392Z,17.90
2018-05-15T20:15:47.404Z,17.90
2018-05-15T20:18:15.660Z,17.90
2018-05-15T20:20:44.655Z,17.80
2018-05-15T20:23:12.907Z,17.80
2018-05-15T20:25:41.900Z,17.80
2018-05-15T20:28:11.351Z,17.70
2018-05-15T20:30:40.206Z,17.70
2018-05-15T20:33:08.511Z,17.70
2018-05-15T20:35:36.743Z,17.60
2018-05-15T20:38:05.751Z,17.50
2018-05-15T20:40:33.998Z,17.40
2018-05-15T20:43:02.242Z,17.40
2018-05-15T20:45:30.463Z,17.40
2018-05-15T20:47:59.472Z,17.20
2018-05-15T20:50:27.710Z,17.20
2018-05-15T20:52:55.950Z,17.10
2018-05-15T20:55:24.186Z,17.10
2018-05-15T20:57:52.424Z,17.10
2018-05-15T21:00:20.660Z,17.10
2018-05-15T21:02:48.905Z,17.10
2018-05-15T21:05:17.134Z,17.00
2018-05-15T21:07:45.382Z,16.90
2018-05-15T21:10:13.618Z,16.90
2018-05-15T21:12:42.901Z,16.80
2018-05-15T21:15:11.146Z,16.80
2018-05-15T21:17:39.375Z,16.80
2018-05-15T21:20:07.603Z,16.70
2018-05-15T21:22:35.845Z,16.60
2018-05-15T21:25:04.073Z,16.60
2018-05-15T21:27:33.087Z,16.50
2018-05-15T21:30:01.318Z,16.50
2018-05-15T21:32:29.563Z,16.40
2018-05-15T21:34:57.794Z,16.40
2018-05-15T21:37:26.804Z,16.40
2018-05-15T21:39:55.026Z,16.40
2018-05-15T21:42:23.275Z,16.30
2018-05-15T21:44:51.551Z,16.30
2018-05-15T21:47:19.805Z,16.20
2018-05-15T21:49:48.258Z,16.20
2018-05-15T21:52:16.486Z,16.20
2018-05-15T21:54:44.719Z,16.20
2018-05-15T21:57:12.967Z,16.10
2018-05-15T21:59:41.204Z,16.10
2018-05-15T22:02:09.443Z,16.10
2018-05-15T22:04:37.672Z,16.00
2018-05-15T22:07:06.127Z,15.90
2018-05-15T22:09:34.360Z,15.80
2018-05-15T22:12:15.421Z,15.40
2018-05-15T22:15:01.927Z,15.40
2018-05-15T22:17:48.223Z,15.20
2018-05-15T22:20:34.450Z,15.20
2018-05-15T22:23:08.523Z,15.10
2018-05-15T22:25:36.502Z,15.00
2018-05-15T22:28:05.520Z,15.00
2018-05-15T22:30:33.755Z,15.00
2018-05-15T22:33:02.766Z,15.00
2018-05-15T22:35:32.146Z,14.90
2018-05-15T22:38:00.370Z,14.90
2018-05-15T22:40:28.622Z,14.70
2018-05-15T22:42:56.870Z,14.50
2018-05-15T22:45:25.879Z,14.40
2018-05-15T22:47:54.139Z,14.40
2018-05-15T22:50:23.146Z,14.30
2018-05-15T22:52:52.157Z,14.30
2018-05-15T22:55:20.395Z,14.30
2018-05-15T22:57:48.639Z,14.40
2018-05-15T23:00:16.887Z,14.40
2018-05-15T23:02:45.136Z,14.40
2018-05-15T23:05:13.794Z,14.40
2018-05-15T23:07:42.015Z,14.40
2018-05-15T23:10:10.247Z,14.40
2018-05-15T23:12:39.263Z,14.40
2018-05-15T23:15:07.500Z,14.40
2018-05-15T23:17:35.995Z,14.40
2018-05-15T23:20:04.999Z,14.40
2018-05-15T23:22:41.966Z,14.30
2018-05-15T23:25:10.979Z,14.30
2018-05-15T23:27:39.240Z,14.20
2018-05-15T23:30:08.259Z,14.20
2018-05-15T23:32:36.500Z,14.20
2018-05-15T23:35:05.514Z,14.20
2018-05-15T23:37:33.758Z,14.20
2018-05-15T23:40:02.780Z,14.20
2018-05-15T23:42:31.012Z,14.20
2018-05-15T23:44:59.266Z,14.20
2018-05-15T23:47:28.266Z,14.20
2018-05-15T23:49:56.520Z,14.20
2018-05-15T23:52:24.758Z,14.20
2018-05-15T23:54:53.015Z,14.20
2018-05-15T23:57:22.023Z,14.10
2018-05-15T23:59:50.278Z,14.10
